createdAt,value
2017-07-28T00:01:27.299Z,8.27
2017-07-28T00:03:53.329Z,9.03
2017-07-28T00:06:19.342Z,8.90
2017-07-28T00:08:45.377Z,9.00
2017-07-28T00:11:11.400Z,8.53
2017-07-28T00:13:37.438Z,9.73
2017-07-28T00:16:04.190Z,8.67
2017-07-28T00:18:30.255Z,9.20
2017-07-28T00:20:57.013Z,8.43
2017-07-28T00:23:23.033Z,8.00
2017-07-28T00:25:49.079Z,9.00
2017-07-28T00:28:15.225Z,9.83
2017-07-28T00:30:41.269Z,9.10
2017-07-28T00:33:07.302Z,7.80
2017-07-28T00:35:33.341Z,8.70
2017-07-28T00:37:59.369Z,7.33
2017-07-28T00:40:25.389Z,7.30
2017-07-28T00:42:51.423Z,7.30
2017-07-28T00:45:17.467Z,7.23
2017-07-28T00:47:43.497Z,7.30
2017-07-28T00:50:09.502Z,5.93
2017-07-28T00:52:35.546Z,5.70
2017-07-28T00:55:01.574Z,5.67
2017-07-28T00:57:27.619Z,5.53
2017-07-28T00:59:54.388Z,5.50
2017-07-28T01:02:20.434Z,5.10
2017-07-28T01:04:46.449Z,5.10
2017-07-28T01:07:12.467Z,4.60
2017-07-28T01:09:38.490Z,5.13
2017-07-28T01:12:05.246Z,4.97
2017-07-28T01:14:31.278Z,4.30
2017-07-28T01:16:57.314Z,4.80
2017-07-28T01:19:23.338Z,6.13
2017-07-28T01:21:50.097Z,3.80
2017-07-28T01:24:16.109Z,4.50
2017-07-28T01:26:42.139Z,5.10
2017-07-28T01:29:08.174Z,4.20
2017-07-28T01:31:34.194Z,4.70
2017-07-28T01:34:00.987Z,5.03
2017-07-28T01:36:27.021Z,4.60
2017-07-28T01:39:08.030Z,4.60
2017-07-28T01:41:34.058Z,4.50
2017-07-28T01:44:00.091Z,4.70
2017-07-28T01:46:26.858Z,5.10
2017-07-28T01:48:52.925Z,5.83
2017-07-28T01:51:18.951Z,5.53
2017-07-28T01:53:45.714Z,5.73
2017-07-28T01:56:11.733Z,6.07
2017-07-28T01:58:37.763Z,6.10
2017-07-28T02:01:03.786Z,6.63
2017-07-28T02:03:29.801Z,5.47
2017-07-28T02:05:56.572Z,6.30
2017-07-28T02:08:22.589Z,6.57
2017-07-28T02:10:48.629Z,6.30
2017-07-28T02:13:14.641Z,6.27
2017-07-28T02:15:40.662Z,7.30
2017-07-28T02:18:06.729Z,6.50
2017-07-28T02:20:32.742Z,8.50
2017-07-28T02:22:58.779Z,9.40
2017-07-28T02:25:25.547Z,8.50
2017-07-28T02:27:51.586Z,6.40
2017-07-28T02:30:17.623Z,8.03
2017-07-28T02:32:44.386Z,7.33
2017-07-28T02:35:10.415Z,7.87
2017-07-28T02:37:36.450Z,7.80
2017-07-28T02:40:02.477Z,8.83
2017-07-28T02:42:29.246Z,8.07
2017-07-28T02:44:55.287Z,9.90
2017-07-28T02:47:21.301Z,11.10
2017-07-28T02:49:48.085Z,13.40
2017-07-28T02:52:14.104Z,14.50
2017-07-28T02:54:40.126Z,11.00
2017-07-28T02:57:06.151Z,12.97
2017-07-28T02:59:32.192Z,13.80
2017-07-28T03:01:58.958Z,14.17
2017-07-28T03:04:25.001Z,13.00
2017-07-28T03:06:51.010Z,13.77
2017-07-28T03:09:17.023Z,13.00
2017-07-28T03:11:43.042Z,14.60
2017-07-28T03:14:09.055Z,16.27
2017-07-28T03:16:35.085Z,13.33
2017-07-28T03:19:01.098Z,14.87
2017-07-28T03:21:27.122Z,14.40
2017-07-28T03:23:53.194Z,13.63
2017-07-28T03:26:19.952Z,13.17
2017-07-28T03:28:45.961Z,13.30
2017-07-28T03:31:12.004Z,14.50
2017-07-28T03:33:38.016Z,15.30
2017-07-28T03:36:04.030Z,16.77
2017-07-28T03:38:30.058Z,14.00
2017-07-28T03:40:56.826Z,14.90
2017-07-28T03:43:22.863Z,16.40
2017-07-28T03:45:48.888Z,17.07
2017-07-28T03:48:14.910Z,19.03
2017-07-28T03:50:40.933Z,19.30
2017-07-28T03:53:06.949Z,18.17
2017-07-28T03:55:32.958Z,20.63
2017-07-28T03:57:58.983Z,19.83
2017-07-28T04:00:25.009Z,19.23
2017-07-28T04:02:51.053Z,22.13
2017-07-28T04:05:17.808Z,19.53
2017-07-28T04:07:43.830Z,18.47
2017-07-28T04:10:09.859Z,18.73
2017-07-28T04:12:35.896Z,18.70
2017-07-28T04:15:02.661Z,17.27
2017-07-28T04:17:28.669Z,18.87
2017-07-28T04:19:54.700Z,17.03
2017-07-28T04:22:20.714Z,16.70
2017-07-28T04:24:46.738Z,16.97
2017-07-28T04:27:12.763Z,14.87
2017-07-28T04:29:38.790Z,16.20
2017-07-28T04:32:04.810Z,13.50
2017-07-28T04:34:30.827Z,14.03
2017-07-28T04:36:56.841Z,12.83
2017-07-28T04:39:22.862Z,11.83
2017-07-28T04:41:48.886Z,14.20
2017-07-28T04:44:14.893Z,11.03
2017-07-28T04:46:40.922Z,10.47
2017-07-28T04:49:06.929Z,9.47
2017-07-28T04:51:32.942Z,11.20
2017-07-28T04:53:58.942Z,10.90
2017-07-28T04:56:24.961Z,9.77
2017-07-28T04:58:51.743Z,10.90
2017-07-28T05:01:17.779Z,10.10
2017-07-28T05:03:44.332Z,9.50
2017-07-28T05:06:10.557Z,8.90
2017-07-28T05:08:36.587Z,7.90
2017-07-28T05:11:02.646Z,7.30
2017-07-28T05:13:28.661Z,6.80
2017-07-28T05:15:54.685Z,7.07
2017-07-28T05:18:20.746Z,7.80
2017-07-28T05:20:46.798Z,9.20
2017-07-28T05:23:13.574Z,7.93
2017-07-28T05:25:39.611Z,7.93
2017-07-28T05:28:05.661Z,9.50
2017-07-28T05:30:31.689Z,8.33
2017-07-28T05:32:57.741Z,9.13
2017-07-28T05:35:24.518Z,8.60
2017-07-28T05:37:50.590Z,6.67
2017-07-28T05:40:16.622Z,9.53
2017-07-28T05:42:42.696Z,8.43
2017-07-28T05:45:09.480Z,6.63
2017-07-28T05:47:35.502Z,7.40
2017-07-28T05:50:01.546Z,6.23
2017-07-28T05:52:27.611Z,6.07
2017-07-28T05:54:53.660Z,6.13
2017-07-28T05:57:19.682Z,6.60
2017-07-28T05:59:45.726Z,7.00
2017-07-28T06:02:11.773Z,7.50
2017-07-28T06:04:37.806Z,6.10
2017-07-28T06:07:04.591Z,6.03
2017-07-28T06:09:30.617Z,6.33
2017-07-28T06:11:56.646Z,5.50
2017-07-28T06:14:23.410Z,6.37
2017-07-28T06:16:49.496Z,5.10
2017-07-28T06:19:15.544Z,4.87
2017-07-28T06:21:41.581Z,5.47
2017-07-28T06:24:07.614Z,6.73
2017-07-28T06:26:33.677Z,6.37
2017-07-28T06:28:59.792Z,6.40
2017-07-28T06:31:25.939Z,6.70
2017-07-28T06:33:59.679Z,4.60
2017-07-28T06:36:25.788Z,6.80
2017-07-28T06:38:51.851Z,6.63
2017-07-28T06:41:17.911Z,4.73
2017-07-28T06:43:43.998Z,6.80
2017-07-28T06:46:10.091Z,7.50
2017-07-28T06:48:36.153Z,6.90
2017-07-28T06:51:02.218Z,6.97
2017-07-28T06:53:28.279Z,8.03
2017-07-28T06:55:54.327Z,10.80
2017-07-28T06:58:20.391Z,8.93
2017-07-28T07:00:47.199Z,8.50
2017-07-28T07:03:13.261Z,8.60
2017-07-28T07:05:39.328Z,7.63
2017-07-28T07:08:05.390Z,8.60
2017-07-28T07:10:31.459Z,8.00
2017-07-28T07:12:58.268Z,7.77
2017-07-28T07:15:24.340Z,7.83
2017-07-28T07:17:50.387Z,8.77
2017-07-28T07:20:16.425Z,6.97
2017-07-28T07:22:42.479Z,7.13
2017-07-28T07:25:08.602Z,9.10
2017-07-28T07:27:35.803Z,8.33
2017-07-28T07:30:02.733Z,7.10
2017-07-28T07:32:28.782Z,7.27
2017-07-28T07:34:54.827Z,7.20
2017-07-28T07:37:20.856Z,8.63
2017-07-28T07:39:47.617Z,6.97
2017-07-28T07:42:13.638Z,8.27
2017-07-28T07:44:39.686Z,8.70
2017-07-28T07:47:05.711Z,8.10
2017-07-28T07:49:32.474Z,8.33
2017-07-28T07:51:58.503Z,8.60
2017-07-28T07:54:24.530Z,7.37
2017-07-28T07:56:50.549Z,7.80
2017-07-28T07:59:17.309Z,7.63
2017-07-28T08:01:43.371Z,8.13
2017-07-28T08:04:09.389Z,8.40
2017-07-28T08:06:35.415Z,9.00
2017-07-28T08:09:02.182Z,6.43
2017-07-28T08:11:28.205Z,8.40
2017-07-28T08:13:54.234Z,7.80
2017-07-28T08:16:20.250Z,6.90
2017-07-28T08:18:46.299Z,8.20
2017-07-28T08:21:12.342Z,7.20
2017-07-28T08:23:38.378Z,7.10
2017-07-28T08:26:05.153Z,8.50
2017-07-28T08:28:46.154Z,7.70
2017-07-28T08:31:12.939Z,9.47
2017-07-28T08:33:38.977Z,8.93
2017-07-28T08:36:05.013Z,8.17
2017-07-28T08:38:31.789Z,8.87
2017-07-28T08:40:57.819Z,8.90
2017-07-28T08:43:23.874Z,5.97
2017-07-28T08:45:49.910Z,7.47
2017-07-28T08:48:15.983Z,7.00
2017-07-28T08:50:42.042Z,6.47
2017-07-28T08:53:08.094Z,6.00
2017-07-28T08:55:34.889Z,7.43
2017-07-28T08:58:01.942Z,7.70
2017-07-28T09:00:29.385Z,7.87
2017-07-28T09:02:55.784Z,7.47
2017-07-28T09:05:21.847Z,8.93
2017-07-28T09:07:47.899Z,7.30
2017-07-28T09:10:14.974Z,7.50
2017-07-28T09:12:41.289Z,9.10
2017-07-28T09:15:07.394Z,7.47
2017-07-28T09:17:33.662Z,6.60
2017-07-28T09:20:00.167Z,7.30
2017-07-28T09:22:26.241Z,7.40
2017-07-28T09:24:52.284Z,6.40
2017-07-28T09:27:18.330Z,8.60
2017-07-28T09:29:45.121Z,7.57
2017-07-28T09:32:11.206Z,8.80
2017-07-28T09:34:37.253Z,7.60
2017-07-28T09:37:03.358Z,7.80
2017-07-28T09:39:29.393Z,9.13
2017-07-28T09:41:56.202Z,7.20
2017-07-28T09:44:22.341Z,7.53
2017-07-28T09:46:48.427Z,7.80
2017-07-28T09:49:14.466Z,6.93
2017-07-28T09:51:40.515Z,6.17
2017-07-28T09:54:06.571Z,5.73
2017-07-28T09:56:34.365Z,6.50
2017-07-28T09:59:02.180Z,5.50
2017-07-28T10:01:28.954Z,4.80
2017-07-28T10:03:56.773Z,6.80
2017-07-28T10:06:24.578Z,5.37
2017-07-28T10:08:52.400Z,4.97
2017-07-28T10:11:20.214Z,5.00
2017-07-28T10:13:46.977Z,6.30
2017-07-28T10:16:13.159Z,6.23
2017-07-28T10:18:39.193Z,5.63
2017-07-28T10:21:05.233Z,6.13
2017-07-28T10:23:31.271Z,5.80
2017-07-28T10:25:58.059Z,4.70
2017-07-28T10:28:24.098Z,5.00
2017-07-28T10:30:50.870Z,4.50
2017-07-28T10:33:16.924Z,4.10
2017-07-28T10:35:42.970Z,4.87
2017-07-28T10:38:09.037Z,4.20
2017-07-28T10:40:35.110Z,3.47
2017-07-28T10:43:01.167Z,4.90
2017-07-28T10:45:27.294Z,3.70
2017-07-28T10:47:54.332Z,5.37
2017-07-28T10:50:20.418Z,3.70
2017-07-28T10:52:47.284Z,4.67
2017-07-28T10:55:13.334Z,4.40
2017-07-28T10:57:39.391Z,4.30
2017-07-28T11:00:05.434Z,4.30
2017-07-28T11:02:31.566Z,5.20
2017-07-28T11:04:57.617Z,4.63
2017-07-28T11:07:23.647Z,5.20
2017-07-28T11:09:49.685Z,5.60
2017-07-28T11:12:15.713Z,5.03
2017-07-28T11:14:41.745Z,5.40
2017-07-28T11:17:08.535Z,4.80
2017-07-28T11:19:34.580Z,4.77
2017-07-28T11:22:00.617Z,6.80
2017-07-28T11:24:27.053Z,5.30
2017-07-28T11:26:54.459Z,4.10
2017-07-28T11:29:20.619Z,5.83
2017-07-28T11:31:46.680Z,10.07
2017-07-28T11:34:12.779Z,5.67
2017-07-28T11:36:39.616Z,2.93
2017-07-28T11:39:05.713Z,3.33
2017-07-28T11:41:31.861Z,3.10
2017-07-28T11:43:57.901Z,4.60
2017-07-28T11:46:23.939Z,2.67
2017-07-28T11:48:50.702Z,2.47
2017-07-28T11:51:16.737Z,2.60
2017-07-28T11:53:42.781Z,1.80
2017-07-28T11:56:09.566Z,1.77
2017-07-28T11:58:35.584Z,2.30
2017-07-28T12:01:01.625Z,2.30
2017-07-28T12:03:28.388Z,2.30
2017-07-28T12:05:54.460Z,2.93
2017-07-28T12:08:21.242Z,2.80
2017-07-28T12:10:47.281Z,3.90
2017-07-28T12:13:14.074Z,4.20
2017-07-28T12:15:40.107Z,4.10
2017-07-28T12:18:06.247Z,4.90
2017-07-28T12:20:32.300Z,5.77
2017-07-28T12:23:00.117Z,4.70
2017-07-28T12:25:26.866Z,5.17
2017-07-28T12:27:52.882Z,4.90
2017-07-28T12:30:18.913Z,3.80
2017-07-28T12:32:44.945Z,4.80
2017-07-28T12:35:10.964Z,6.93
2017-07-28T12:37:37.734Z,6.23
2017-07-28T12:40:03.770Z,6.10
2017-07-28T12:42:29.819Z,6.73
2017-07-28T12:44:55.837Z,7.27
2017-07-28T12:47:21.854Z,6.93
2017-07-28T12:49:47.858Z,8.30
2017-07-28T12:52:13.962Z,7.90
2017-07-28T12:54:40.042Z,8.17
2017-07-28T12:57:06.883Z,9.03
2017-07-28T12:59:33.711Z,8.40
2017-07-28T13:02:00.464Z,9.07
2017-07-28T13:04:26.478Z,8.40
2017-07-28T13:06:52.494Z,8.50
2017-07-28T13:09:18.518Z,10.70
2017-07-28T13:11:44.541Z,9.60
2017-07-28T13:14:10.559Z,12.63
2017-07-28T13:16:36.591Z,17.07
2017-07-28T13:19:02.671Z,13.20
2017-07-28T13:21:28.690Z,16.17
2017-07-28T13:23:55.450Z,19.53
2017-07-28T13:26:21.497Z,12.20
2017-07-28T13:28:47.534Z,5.70
2017-07-28T13:31:14.306Z,5.47
2017-07-28T13:33:40.329Z,3.87
2017-07-28T13:36:06.373Z,3.93
2017-07-28T13:38:34.174Z,3.93
2017-07-28T13:41:01.979Z,3.73
2017-07-28T13:43:29.777Z,3.40
2017-07-28T13:46:02.070Z,3.50
2017-07-28T13:48:28.094Z,3.80
2017-07-28T13:50:54.860Z,3.33
2017-07-28T13:53:20.887Z,3.30
2017-07-28T13:55:46.915Z,3.13
2017-07-28T13:58:12.941Z,3.20
2017-07-28T14:00:39.713Z,2.60
2017-07-28T14:03:05.750Z,3.40
2017-07-28T14:05:31.773Z,2.97
2017-07-28T14:07:57.801Z,2.90
2017-07-28T14:10:23.809Z,2.70
2017-07-28T14:12:49.836Z,2.97
2017-07-28T14:15:15.845Z,2.40
2017-07-28T14:17:43.644Z,2.60
2017-07-28T14:20:11.442Z,3.13
2017-07-28T14:22:38.592Z,2.40
2017-07-28T14:25:04.634Z,2.00
2017-07-28T14:27:30.667Z,2.60
2017-07-28T14:29:56.705Z,1.90
2017-07-28T14:32:22.724Z,2.20
2017-07-28T14:34:48.745Z,2.47
2017-07-28T14:37:14.761Z,2.63
2017-07-28T14:39:40.795Z,2.50
2017-07-28T14:42:06.813Z,3.40
2017-07-28T14:44:34.618Z,3.70
2017-07-28T14:47:02.409Z,3.47
2017-07-28T14:49:30.209Z,4.17
2017-07-28T14:51:57.997Z,3.90
2017-07-28T14:54:25.797Z,4.03
2017-07-28T14:56:53.586Z,4.10
2017-07-28T14:59:21.394Z,3.97
2017-07-28T15:01:49.193Z,4.67
2017-07-28T15:04:18.149Z,4.93
2017-07-28T15:06:45.955Z,4.40
2017-07-28T15:09:13.745Z,5.70
2017-07-28T15:11:41.558Z,5.40
2017-07-28T15:14:07.958Z,6.00
2017-07-28T15:16:34.362Z,7.37
2017-07-28T15:19:00.398Z,7.37
2017-07-28T15:21:27.334Z,8.13
2017-07-28T15:23:53.424Z,6.47
2017-07-28T15:26:19.474Z,7.00
2017-07-28T15:28:45.482Z,5.93
2017-07-28T15:31:11.502Z,6.70
2017-07-28T15:33:37.527Z,6.87
2017-07-28T15:36:03.537Z,6.30
2017-07-28T15:38:29.567Z,5.87
2017-07-28T15:40:55.592Z,5.30
2017-07-28T15:43:22.358Z,6.60
2017-07-28T15:45:48.373Z,6.70
2017-07-28T15:48:14.393Z,6.17
2017-07-28T15:50:40.418Z,6.20
2017-07-28T15:53:06.446Z,6.73
2017-07-28T15:55:32.453Z,5.37
2017-07-28T15:57:58.478Z,5.93
2017-07-28T16:00:24.493Z,5.87
2017-07-28T16:02:50.527Z,5.03
2017-07-28T16:05:16.534Z,3.83
2017-07-28T16:07:42.541Z,3.77
2017-07-28T16:10:09.018Z,4.33
2017-07-28T16:12:35.774Z,3.50
2017-07-28T16:15:01.807Z,4.10
2017-07-28T16:17:27.841Z,3.43
2017-07-28T16:19:53.862Z,4.03
2017-07-28T16:22:20.628Z,3.00
2017-07-28T16:24:48.444Z,2.60
2017-07-28T16:27:15.215Z,2.67
2017-07-28T16:29:41.233Z,2.77
2017-07-28T16:32:07.241Z,2.80
2017-07-28T16:34:33.261Z,2.10
2017-07-28T16:36:59.273Z,2.77
2017-07-28T16:39:25.279Z,2.97
2017-07-28T16:41:53.070Z,3.27
2017-07-28T16:44:20.882Z,3.50
2017-07-28T16:46:48.687Z,3.17
2017-07-28T16:49:16.487Z,4.10
2017-07-28T16:51:44.394Z,4.03
2017-07-28T16:54:10.414Z,4.20
2017-07-28T16:56:36.451Z,3.63
2017-07-28T16:59:02.469Z,4.70
2017-07-28T17:01:28.494Z,4.00
2017-07-28T17:03:55.246Z,4.60
2017-07-28T17:06:21.300Z,4.20
2017-07-28T17:08:47.313Z,5.10
2017-07-28T17:11:13.352Z,5.60
2017-07-28T17:13:40.110Z,4.53
2017-07-28T17:16:06.136Z,5.40
2017-07-28T17:18:32.169Z,4.47
2017-07-28T17:20:58.207Z,4.60
2017-07-28T17:23:24.218Z,3.87
2017-07-28T17:25:50.246Z,3.60
2017-07-28T17:28:16.295Z,3.80
2017-07-28T17:30:42.702Z,4.10
2017-07-28T17:33:08.771Z,4.00
2017-07-28T17:35:34.801Z,4.43
2017-07-28T17:38:00.869Z,4.27
2017-07-28T17:40:27.645Z,3.17
2017-07-28T17:42:53.695Z,3.07
2017-07-28T17:45:19.728Z,3.77
2017-07-28T17:47:45.794Z,3.73
2017-07-28T17:50:11.833Z,4.37
2017-07-28T17:52:38.598Z,2.83
2017-07-28T17:55:05.237Z,3.97
2017-07-28T17:57:31.276Z,3.50
2017-07-28T17:59:57.406Z,4.10
2017-07-28T18:02:24.161Z,3.97
2017-07-28T18:04:50.203Z,3.80
2017-07-28T18:07:16.237Z,4.10
2017-07-28T18:09:42.989Z,3.60
2017-07-28T18:12:08.997Z,3.80
2017-07-28T18:14:35.017Z,3.40
2017-07-28T18:17:01.060Z,3.70
2017-07-28T18:19:27.089Z,3.70
2017-07-28T18:21:53.120Z,3.20
2017-07-28T18:24:19.157Z,4.10
2017-07-28T18:26:45.185Z,4.10
2017-07-28T18:29:11.219Z,3.33
2017-07-28T18:31:37.225Z,3.47
2017-07-28T18:34:03.266Z,4.50
2017-07-28T18:36:29.354Z,4.20
2017-07-28T18:38:56.131Z,4.20
2017-07-28T18:41:22.157Z,4.30
2017-07-28T18:43:48.185Z,4.33
2017-07-28T18:46:14.234Z,5.07
2017-07-28T18:48:40.257Z,5.70
2017-07-28T18:51:06.334Z,3.93
2017-07-28T18:53:33.093Z,4.80
2017-07-28T18:55:59.258Z,4.03
2017-07-28T18:58:26.041Z,4.77
2017-07-28T19:00:52.086Z,4.40
2017-07-28T19:03:18.118Z,4.60
2017-07-28T19:05:44.146Z,4.20
2017-07-28T19:08:10.170Z,5.67
2017-07-28T19:10:36.219Z,4.97
2017-07-28T19:13:02.271Z,4.77
2017-07-28T19:15:28.315Z,5.27
2017-07-28T19:17:54.350Z,4.50
2017-07-28T19:20:20.361Z,5.47
2017-07-28T19:22:46.396Z,5.27
2017-07-28T19:25:12.422Z,6.27
2017-07-28T19:27:38.452Z,5.97
2017-07-28T19:30:04.474Z,7.50
2017-07-28T19:32:30.527Z,9.60
2017-07-28T19:34:56.621Z,8.83
2017-07-28T19:37:22.659Z,8.77
2017-07-28T19:39:48.683Z,8.90
2017-07-28T19:42:14.702Z,7.30
2017-07-28T19:44:40.722Z,7.80
2017-07-28T19:47:06.745Z,6.50
2017-07-28T19:49:32.783Z,6.00
2017-07-28T19:51:58.827Z,7.40
2017-07-28T19:54:24.867Z,6.43
2017-07-28T19:56:50.905Z,6.80
2017-07-28T19:59:17.697Z,5.70
2017-07-28T20:01:43.760Z,6.10
2017-07-28T20:04:09.807Z,5.80
2017-07-28T20:06:35.839Z,7.50
2017-07-28T20:09:02.622Z,7.07
2017-07-28T20:11:28.707Z,6.27
2017-07-28T20:13:54.742Z,5.90
2017-07-28T20:16:20.781Z,6.20
2017-07-28T20:18:46.869Z,6.07
2017-07-28T20:21:12.914Z,6.10
2017-07-28T20:23:38.958Z,6.17
2017-07-28T20:26:05.029Z,6.00
2017-07-28T20:28:31.198Z,5.90
2017-07-28T20:30:57.287Z,6.20
2017-07-28T20:33:23.309Z,7.00
2017-07-28T20:35:49.390Z,6.60
2017-07-28T20:38:16.178Z,6.83
2017-07-28T20:40:42.244Z,6.70
2017-07-28T20:43:08.273Z,6.93
2017-07-28T20:45:34.637Z,6.10
2017-07-28T20:48:00.657Z,6.53
2017-07-28T20:50:27.410Z,7.60
2017-07-28T20:52:53.433Z,6.67
2017-07-28T20:55:19.466Z,7.50
2017-07-28T20:57:45.489Z,7.33
2017-07-28T21:00:11.519Z,6.47
2017-07-28T21:02:38.174Z,6.93
2017-07-28T21:05:05.518Z,6.77
2017-07-28T21:07:32.451Z,6.93
2017-07-28T21:09:58.618Z,7.50
2017-07-28T21:12:25.379Z,7.97
2017-07-28T21:14:51.402Z,8.80
2017-07-28T21:17:17.417Z,8.23
2017-07-28T21:19:43.457Z,9.10
2017-07-28T21:22:10.244Z,7.90
2017-07-28T21:24:36.277Z,7.93
2017-07-28T21:27:02.305Z,7.70
2017-07-28T21:29:29.119Z,7.03
2017-07-28T21:31:55.923Z,7.40
2017-07-28T21:34:21.958Z,8.50
2017-07-28T21:36:47.989Z,7.53
2017-07-28T21:39:14.035Z,9.00
2017-07-28T21:41:40.075Z,8.50
2017-07-28T21:44:06.101Z,8.83
2017-07-28T21:46:32.950Z,10.27
2017-07-28T21:48:58.973Z,9.40
2017-07-28T21:51:25.013Z,9.70
2017-07-28T21:53:51.064Z,8.07
2017-07-28T21:56:17.086Z,8.17
2017-07-28T21:58:43.112Z,7.83
2017-07-28T22:01:09.163Z,6.73
2017-07-28T22:03:35.973Z,7.33
2017-07-28T22:06:02.042Z,6.60
2017-07-28T22:08:28.094Z,6.93
2017-07-28T22:10:54.153Z,7.53
2017-07-28T22:13:20.217Z,5.93
2017-07-28T22:15:46.251Z,6.43
2017-07-28T22:18:12.303Z,6.60
2017-07-28T22:20:38.371Z,6.60
2017-07-28T22:23:05.137Z,7.00
2017-07-28T22:25:31.163Z,6.60
2017-07-28T22:27:57.204Z,7.03
2017-07-28T22:30:23.242Z,7.07
2017-07-28T22:32:49.293Z,7.10
2017-07-28T22:35:15.330Z,7.03
2017-07-28T22:37:41.361Z,6.57
2017-07-28T22:40:07.405Z,7.47
2017-07-28T22:42:33.451Z,8.37
2017-07-28T22:44:59.497Z,6.70
2017-07-28T22:47:25.523Z,7.33
2017-07-28T22:49:51.569Z,7.03
2017-07-28T22:52:17.645Z,6.60
2017-07-28T22:54:43.673Z,7.47
2017-07-28T22:57:09.718Z,7.10
2017-07-28T22:59:36.528Z,7.83
2017-07-28T23:02:02.567Z,6.43
2017-07-28T23:04:28.607Z,7.20
2017-07-28T23:06:54.653Z,6.83
2017-07-28T23:09:20.706Z,7.00
2017-07-28T23:11:46.752Z,7.50
2017-07-28T23:14:12.765Z,7.23
2017-07-28T23:16:38.929Z,8.27
2017-07-28T23:19:19.946Z,7.40
2017-07-28T23:21:45.986Z,7.70
2017-07-28T23:24:12.022Z,7.20
2017-07-28T23:26:38.079Z,8.60
2017-07-28T23:29:04.134Z,6.63
2017-07-28T23:31:30.168Z,7.40
2017-07-28T23:33:56.209Z,7.67
2017-07-28T23:36:23.002Z,7.73
2017-07-28T23:38:49.815Z,8.37
2017-07-28T23:41:15.867Z,7.30
2017-07-28T23:43:41.920Z,8.07
2017-07-28T23:46:07.955Z,8.23
2017-07-28T23:48:33.984Z,8.30
2017-07-28T23:51:00.031Z,8.03
2017-07-28T23:53:26.817Z,6.50
2017-07-28T23:55:52.857Z,8.40
2017-07-28T23:58:18.903Z,9.53
